Time;durP1;ratioP1;P1;durP2;ratioP2;P2;SDS_P1;SDS_P2;PMS_P1;PMS_P2;Temp;Humidity;BMP_temperature;BMP_pressure;BME280_temperature;BME280_humidity;BME280_pressure;Samples;Min_cycle;Max_cycle;Signal;HPM_P1;HPM_P2
2023/06/15 00:02:11;;;;;;;23.65;7.18;;;24.70;52.20;;;;;;5043618;28;20090;-54
2023/06/15 00:04:38;;;;;;;19.52;6.60;;;24.60;52.30;;;;;;5043285;28;20093;-54
2023/06/15 00:07:03;;;;;;;19.60;6.07;;;24.60;52.40;;;;;;5042903;28;20048;-54
2023/06/15 00:09:29;;;;;;;18.88;5.75;;;24.60;52.40;;;;;;5043179;28;20029;-54
2023/06/15 00:11:54;;;;;;;15.98;6.03;;;24.50;52.40;;;;;;5043473;28;20022;-54
2023/06/15 00:14:20;;;;;;;20.73;6.35;;;24.50;52.50;;;;;;5042782;28;20057;-55
2023/06/15 00:16:46;;;;;;;20.80;6.05;;;24.50;52.60;;;;;;5043251;28;20033;-53
2023/06/15 00:19:12;;;;;;;18.38;6.43;;;24.40;52.60;;;;;;5043150;28;20025;-54
2023/06/15 00:21:40;;;;;;;18.52;6.57;;;24.40;52.70;;;;;;5043024;28;20052;-54
2023/06/15 00:24:09;;;;;;;18.23;6.22;;;24.40;52.80;;;;;;5044461;28;20037;-54
2023/06/15 00:26:36;;;;;;;18.88;6.50;;;24.40;52.90;;;;;;5042832;28;20103;-54
2023/06/15 00:29:01;;;;;;;15.40;5.68;;;24.30;52.80;;;;;;5026355;28;20026;-54
2023/06/15 00:31:27;;;;;;;13.77;6.22;;;24.30;52.90;;;;;;5043031;28;20336;-55
2023/06/15 00:33:53;;;;;;;21.60;6.18;;;24.30;53.00;;;;;;5044424;28;20037;-54
2023/06/15 00:36:18;;;;;;;14.18;5.50;;;24.20;53.00;;;;;;5042992;28;20030;-54
2023/06/15 00:38:44;;;;;;;18.58;5.20;;;24.20;53.00;;;;;;5026470;28;20030;-54
2023/06/15 00:41:10;;;;;;;15.10;5.78;;;24.20;53.10;;;;;;5043005;28;20029;-54
2023/06/15 00:43:35;;;;;;;21.45;6.18;;;24.10;53.10;;;;;;5042829;28;20061;-55
2023/06/15 00:46:02;;;;;;;13.05;5.55;;;24.10;53.20;;;;;;5042827;28;20056;-54
2023/06/15 00:48:28;;;;;;;14.05;5.80;;;24.10;53.20;;;;;;5042810;28;20060;-54
2023/06/15 00:50:54;;;;;;;17.65;5.63;;;24.00;53.20;;;;;;5026331;28;20117;-54
2023/06/15 00:53:20;;;;;;;21.63;5.78;;;24.00;53.30;;;;;;5044226;28;20473;-53
2023/06/15 00:55:45;;;;;;;15.50;5.80;;;24.00;53.50;;;;;;5026238;28;20417;-54
2023/06/15 00:58:11;;;;;;;12.52;5.63;;;23.90;53.40;;;;;;5042882;28;20033;-54
2023/06/15 01:00:37;;;;;;;11.02;5.18;;;23.90;53.60;;;;;;5026368;28;20033;-54
2023/06/15 01:03:06;;;;;;;15.00;5.57;;;23.80;53.60;;;;;;5042905;28;20045;-54
2023/06/15 01:05:34;;;;;;;12.68;5.20;;;23.80;53.70;;;;;;5042807;28;20036;-54
2023/06/15 01:08:04;;;;;;;12.93;4.93;;;23.80;53.70;;;;;;5042670;28;20216;-54
2023/06/15 01:10:31;;;;;;;12.00;5.28;;;23.80;53.80;;;;;;5042825;28;20033;-54
2023/06/15 01:12:57;;;;;;;13.85;4.43;;;23.80;53.80;;;;;;5026525;28;20033;-54
2023/06/15 01:15:22;;;;;;;8.82;4.32;;;23.70;53.80;;;;;;5043176;28;20064;-53
2023/06/15 01:17:53;;;;;;;11.60;4.78;;;23.70;53.90;;;;;;5043202;28;20025;-54
2023/06/15 01:20:24;;;;;;;15.77;5.40;;;23.70;53.90;;;;;;5045145;28;20316;-54
2023/06/15 01:22:55;;;;;;;15.43;5.30;;;23.70;54.00;;;;;;5046323;28;20025;-54
2023/06/15 01:25:29;;;;;;;8.73;4.70;;;23.60;54.00;;;;;;5029854;28;20036;-54
2023/06/15 01:27:59;;;;;;;10.95;4.80;;;23.60;54.10;;;;;;5047575;28;20026;-54
2023/06/15 01:30:26;;;;;;;15.98;5.10;;;23.60;54.10;;;;;;5046289;28;20021;-54
2023/06/15 01:32:52;;;;;;;10.05;4.28;;;23.60;54.10;;;;;;5046436;28;20025;-55
2023/06/15 01:35:18;;;;;;;12.45;5.22;;;23.60;54.20;;;;;;5029902;28;20037;-54
2023/06/15 01:37:44;;;;;;;11.48;5.05;;;23.50;54.20;;;;;;5045980;28;20034;-54
2023/06/15 01:40:10;;;;;;;11.55;4.43;;;23.50;54.20;;;;;;5029462;28;20073;-54
2023/06/15 01:42:35;;;;;;;9.00;4.68;;;23.50;54.20;;;;;;5045755;28;20025;-54
2023/06/15 01:45:01;;;;;;;11.50;4.47;;;23.50;54.30;;;;;;5045654;28;20034;-54
2023/06/15 01:47:27;;;;;;;6.18;4.60;;;23.40;54.40;;;;;;5045848;28;20035;-54
2023/06/15 01:49:52;;;;;;;15.05;4.78;;;23.40;55.00;;;;;;5045783;28;20037;-54
2023/06/15 01:52:18;;;;;;;7.88;4.78;;;23.40;54.50;;;;;;5045552;28;20026;-54
2023/06/15 01:54:43;;;;;;;9.65;5.07;;;23.40;54.60;;;;;;5045645;28;20029;-54
2023/06/15 01:57:10;;;;;;;16.73;7.28;;;23.30;54.60;;;;;;5045648;28;20041;-54
2023/06/15 01:59:36;;;;;;;13.65;5.63;;;23.30;54.60;;;;;;5046794;28;20028;-54
2023/06/15 02:02:01;;;;;;;15.90;6.32;;;23.30;54.70;;;;;;5045771;28;20025;-54
2023/06/15 02:04:27;;;;;;;14.40;6.90;;;23.30;54.80;;;;;;5046879;28;20092;-54
2023/06/15 02:06:52;;;;;;;14.05;6.65;;;23.30;55.40;;;;;;5045469;28;20026;-54
2023/06/15 02:09:18;;;;;;;12.35;6.60;;;23.20;54.80;;;;;;5045371;28;20030;-54
2023/06/15 02:11:44;;;;;;;11.98;6.30;;;23.20;54.90;;;;;;5046702;28;20029;-55
2023/06/15 02:14:10;;;;;;;13.60;7.70;;;23.20;55.00;;;;;;5045125;28;20044;-54
2023/06/15 02:16:35;;;;;;;16.17;7.65;;;23.20;55.10;;;;;;5045289;28;20025;-54
2023/06/15 02:19:03;;;;;;;16.98;6.80;;;23.10;55.10;;;;;;5046454;28;20045;-54
2023/06/15 02:21:29;;;;;;;13.30;6.90;;;23.10;55.20;;;;;;5046610;28;20033;-54
2023/06/15 02:23:55;;;;;;;12.63;6.57;;;23.10;55.20;;;;;;5045096;28;20029;-54
2023/06/15 02:26:21;;;;;;;13.95;7.03;;;23.10;55.30;;;;;;5044915;28;20033;-54
2023/06/15 02:28:47;;;;;;;10.95;6.50;;;23.00;55.30;;;;;;5046145;28;20083;-54
2023/06/15 02:31:13;;;;;;;12.25;6.82;;;23.00;55.30;;;;;;5027261;28;20021;-53
2023/06/15 02:33:38;;;;;;;12.07;6.60;;;23.00;55.40;;;;;;5046162;28;20044;-54
2023/06/15 02:36:06;;;;;;;18.73;8.43;;;23.00;55.50;;;;;;5044690;28;20028;-54
2023/06/15 02:38:31;;;;;;;12.85;8.15;;;22.90;55.40;;;;;;5046012;28;20029;-54
2023/06/15 02:40:57;;;;;;;20.33;8.05;;;22.90;55.50;;;;;;5044601;28;20060;-54
2023/06/15 02:43:22;;;;;;;16.50;8.05;;;22.90;55.50;;;;;;5046073;28;20130;-54
2023/06/15 02:45:48;;;;;;;16.00;8.10;;;22.90;55.60;;;;;;5044660;28;20036;-54
2023/06/15 02:48:14;;;;;;;11.15;7.90;;;22.90;55.60;;;;;;5044580;28;20037;-54
2023/06/15 02:50:39;;;;;;;13.52;8.80;;;22.90;55.70;;;;;;5044396;28;20052;-54
2023/06/15 02:53:05;;;;;;;15.73;8.75;;;22.80;55.70;;;;;;5045862;28;20063;-54
2023/06/15 02:55:32;;;;;;;11.95;8.23;;;22.80;55.70;;;;;;5028052;28;20022;-54
2023/06/15 02:57:58;;;;;;;14.07;7.82;;;22.80;55.70;;;;;;5044366;28;20026;-54
2023/06/15 03:00:25;;;;;;;13.80;8.90;;;22.70;55.70;;;;;;5045629;28;20139;-54
2023/06/15 03:02:52;;;;;;;17.67;9.00;;;22.70;55.80;;;;;;5044513;28;20081;-54
2023/06/15 03:05:18;;;;;;;13.10;7.65;;;22.70;55.80;;;;;;5045469;28;20029;-54
2023/06/15 03:07:43;;;;;;;10.65;6.88;;;22.70;55.90;;;;;;5044208;28;20482;-54
2023/06/15 03:10:09;;;;;;;12.18;7.20;;;22.60;56.00;;;;;;5044133;28;20034;-54
2023/06/15 03:12:35;;;;;;;14.40;8.30;;;22.60;56.00;;;;;;5045387;28;20363;-54
2023/06/15 03:15:01;;;;;;;15.60;7.85;;;22.60;56.00;;;;;;5043820;28;20037;-54
2023/06/15 03:17:26;;;;;;;11.30;7.63;;;22.60;56.00;;;;;;5043889;28;20038;-54
2023/06/15 03:19:52;;;;;;;14.45;7.35;;;22.50;56.10;;;;;;5043773;28;20061;-54
2023/06/15 03:22:18;;;;;;;14.30;7.25;;;22.50;56.20;;;;;;5043784;28;20056;-54
2023/06/15 03:24:44;;;;;;;9.02;6.75;;;22.50;56.20;;;;;;5043793;28;20427;-54
2023/06/15 03:27:13;;;;;;;14.18;7.68;;;22.40;56.20;;;;;;5045090;28;20048;-54
2023/06/15 03:29:39;;;;;;;17.80;6.95;;;22.40;56.20;;;;;;5027674;28;20030;-54
2023/06/15 03:32:06;;;;;;;73.00;12.23;;;22.40;56.30;;;;;;5027374;28;20100;-56
2023/06/15 03:34:31;;;;;;;77.85;14.25;;;22.40;56.30;;;;;;5043715;28;20033;-57
2023/06/15 03:36:57;;;;;;;59.80;13.07;;;22.40;56.40;;;;;;5043720;28;20029;-57
2023/06/15 03:39:22;;;;;;;49.15;9.38;;;22.30;56.40;;;;;;5043600;28;20040;-57
2023/06/15 03:41:48;;;;;;;53.30;10.18;;;22.30;56.50;;;;;;5044865;28;20027;-57
2023/06/15 03:44:14;;;;;;;51.15;10.00;;;22.30;56.50;;;;;;5044894;28;20042;-57
2023/06/15 03:46:41;;;;;;;39.92;9.55;;;22.30;56.60;;;;;;5043352;28;20370;-57
2023/06/15 03:49:07;;;;;;;34.92;9.35;;;22.20;56.70;;;;;;5044568;28;20080;-57
2023/06/15 03:51:32;;;;;;;42.35;10.00;;;22.20;57.00;;;;;;5043539;28;20025;-57
2023/06/15 03:53:59;;;;;;;51.75;9.63;;;22.20;56.90;;;;;;5043463;28;20072;-56
2023/06/15 03:56:25;;;;;;;39.97;9.13;;;22.20;57.10;;;;;;5043457;28;20092;-57
2023/06/15 03:58:50;;;;;;;39.35;9.00;;;22.20;57.70;;;;;;5044865;28;20030;-56
2023/06/15 04:01:16;;;;;;;27.33;8.70;;;22.20;57.50;;;;;;5044906;28;20056;-56
2023/06/15 04:03:41;;;;;;;30.27;8.45;;;22.10;57.50;;;;;;5043606;28;20033;-57
2023/06/15 04:06:07;;;;;;;35.10;8.80;;;22.10;57.30;;;;;;5044766;28;20150;-57
2023/06/15 04:08:33;;;;;;;34.15;8.07;;;22.10;57.40;;;;;;5043227;28;20045;-57
2023/06/15 04:10:59;;;;;;;25.67;7.93;;;22.10;57.50;;;;;;5043380;28;20121;-57
2023/06/15 04:13:24;;;;;;;33.55;7.53;;;22.00;57.50;;;;;;5042900;28;20108;-57
2023/06/15 04:15:50;;;;;;;29.67;7.63;;;22.00;57.50;;;;;;5044555;28;20033;-57
2023/06/15 04:18:16;;;;;;;31.25;7.55;;;22.00;57.50;;;;;;5043171;28;20025;-56
2023/06/15 04:20:42;;;;;;;32.50;7.32;;;22.00;57.40;;;;;;5044610;28;20029;-56
2023/06/15 04:23:07;;;;;;;36.72;8.98;;;22.00;57.50;;;;;;5026498;28;20365;-56
2023/06/15 04:25:35;;;;;;;24.27;7.90;;;22.00;57.50;;;;;;5044598;28;20482;-57
2023/06/15 04:28:02;;;;;;;34.40;7.68;;;22.00;57.40;;;;;;5044128;28;20026;-57
2023/06/15 04:30:29;;;;;;;29.33;7.38;;;22.00;57.40;;;;;;5044589;28;20087;-57
2023/06/15 04:32:59;;;;;;;18.42;6.70;;;21.90;57.40;;;;;;5043051;28;20055;-56
2023/06/15 04:35:28;;;;;;;31.30;7.45;;;21.90;57.40;;;;;;5043176;28;20045;-57
2023/06/15 04:37:58;;;;;;;24.45;7.53;;;21.90;57.40;;;;;;5044115;28;20024;-56
2023/06/15 04:40:24;;;;;;;37.47;7.40;;;21.90;57.50;;;;;;5042908;28;20033;-57
2023/06/15 04:42:50;;;;;;;27.92;6.95;;;21.90;57.50;;;;;;5043146;28;20041;-57
2023/06/15 04:45:15;;;;;;;23.00;6.45;;;21.90;57.60;;;;;;5044621;28;20029;-56
2023/06/15 04:47:42;;;;;;;28.95;7.25;;;21.90;57.50;;;;;;5043693;28;20048;-56
2023/06/15 04:50:14;;;;;;;23.08;6.68;;;21.80;57.50;;;;;;5042938;28;20028;-57
2023/06/15 04:52:40;;;;;;;18.70;6.38;;;21.90;57.60;;;;;;5043150;28;20034;-57
2023/06/15 04:55:06;;;;;;;24.88;6.78;;;21.90;57.70;;;;;;5044629;28;20018;-57
2023/06/15 04:57:32;;;;;;;25.38;6.47;;;21.80;57.60;;;;;;5046620;28;20034;-57
2023/06/15 04:59:57;;;;;;;15.10;6.43;;;21.80;57.60;;;;;;5029847;28;20044;-57
2023/06/15 05:02:23;;;;;;;21.05;5.97;;;21.80;57.60;;;;;;5047935;28;20079;-57
2023/06/15 05:04:48;;;;;;;16.25;5.90;;;21.80;57.60;;;;;;5046329;28;20049;-57
2023/06/15 05:07:14;;;;;;;27.27;6.35;;;21.70;57.60;;;;;;5045015;28;20049;-57
2023/06/15 05:09:39;;;;;;;23.17;6.10;;;21.80;57.60;;;;;;5044746;28;20075;-57
2023/06/15 05:12:05;;;;;;;21.48;5.90;;;21.80;57.60;;;;;;5044722;28;20033;-55
2023/06/15 05:14:31;;;;;;;21.73;6.43;;;21.80;57.60;;;;;;5044083;28;20033;-57
2023/06/15 05:16:57;;;;;;;19.08;6.18;;;21.80;57.60;;;;;;5044240;28;20068;-57
2023/06/15 05:19:22;;;;;;;21.23;6.53;;;21.80;57.70;;;;;;5044222;28;20017;-57
2023/06/15 05:21:50;;;;;;;24.75;6.53;;;21.70;57.60;;;;;;5044006;28;20045;-56
2023/06/15 05:24:15;;;;;;;30.35;6.88;;;21.70;57.60;;;;;;5044130;28;20026;-57
2023/06/15 05:26:41;;;;;;;32.92;7.05;;;21.70;57.60;;;;;;5043771;28;20049;-56
2023/06/15 05:29:06;;;;;;;26.98;7.20;;;21.70;57.50;;;;;;5047400;28;20068;-57
2023/06/15 05:31:33;;;;;;;76.85;12.13;;;21.80;57.60;;;;;;5047447;28;20129;-57
2023/06/15 05:33:58;;;;;;;62.50;11.07;;;21.70;57.60;;;;;;5045911;28;20052;-57
2023/06/15 05:36:30;;;;;;;55.60;9.25;;;21.80;57.60;;;;;;5045963;28;20029;-56
2023/06/15 05:38:56;;;;;;;40.17;9.15;;;21.80;57.60;;;;;;5045891;28;20025;-57
2023/06/15 05:41:22;;;;;;;59.15;9.55;;;21.70;57.60;;;;;;5047443;28;20117;-57
2023/06/15 05:43:47;;;;;;;45.75;9.68;;;21.80;57.60;;;;;;5045396;28;20044;-57
2023/06/15 05:46:13;;;;;;;48.47;9.13;;;21.70;57.60;;;;;;5045525;28;20037;-58
2023/06/15 05:48:38;;;;;;;48.90;10.30;;;21.80;57.60;;;;;;5046861;28;20030;-56
2023/06/15 05:51:04;;;;;;;44.83;9.65;;;21.80;57.70;;;;;;5045834;28;20030;-57
2023/06/15 05:53:30;;;;;;;39.95;10.27;;;21.80;57.70;;;;;;5045497;28;20037;-57
2023/06/15 05:55:55;;;;;;;40.88;9.68;;;21.80;57.70;;;;;;5046770;28;20051;-56
2023/06/15 05:58:21;;;;;;;49.45;10.13;;;21.80;57.70;;;;;;5046908;28;20038;-57
2023/06/15 06:00:46;;;;;;;49.33;9.68;;;21.70;57.70;;;;;;5046792;28;20030;-56
2023/06/15 06:03:12;;;;;;;55.22;9.75;;;21.70;57.70;;;;;;5045283;28;20112;-56
2023/06/15 06:05:37;;;;;;;43.95;9.38;;;21.80;57.80;;;;;;5045989;28;20030;-57
2023/06/15 06:08:03;;;;;;;71.95;10.32;;;21.70;57.80;;;;;;5045284;28;20032;-57
2023/06/15 06:10:29;;;;;;;68.25;10.15;;;21.70;57.80;;;;;;5044727;28;20064;-57
2023/06/15 06:12:54;;;;;;;55.25;8.60;;;21.70;57.80;;;;;;5042678;28;20047;-56
2023/06/15 06:15:20;;;;;;;51.40;10.15;;;21.70;57.80;;;;;;5042702;28;20063;-56
2023/06/15 06:17:46;;;;;;;66.20;10.48;;;21.70;57.90;;;;;;5042694;28;20051;-57
2023/06/15 06:20:12;;;;;;;45.05;9.07;;;21.70;57.90;;;;;;5042741;28;20029;-57
2023/06/15 06:22:37;;;;;;;61.63;9.48;;;21.80;58.00;;;;;;5044208;28;20089;-57
2023/06/15 06:25:03;;;;;;;46.08;9.38;;;21.80;58.00;;;;;;5042939;28;20060;-57
2023/06/15 06:27:29;;;;;;;54.42;9.38;;;21.80;57.90;;;;;;5044421;28;20036;-57
2023/06/15 06:29:55;;;;;;;45.17;9.07;;;21.80;58.00;;;;;;5044662;28;20081;-57
2023/06/15 06:32:20;;;;;;;46.95;9.75;;;21.80;58.10;;;;;;5044474;28;20473;-57
2023/06/15 06:34:46;;;;;;;45.63;9.50;;;21.80;58.10;;;;;;5046089;28;20056;-57
2023/06/15 06:37:12;;;;;;;69.75;10.05;;;21.80;58.10;;;;;;5043206;28;20045;-56
2023/06/15 06:39:38;;;;;;;59.75;9.80;;;21.80;58.10;;;;;;5045049;28;20037;-57
2023/06/15 06:42:03;;;;;;;56.47;9.85;;;21.80;58.30;;;;;;5043831;28;20080;-57
2023/06/15 06:44:29;;;;;;;61.47;9.20;;;21.80;58.20;;;;;;5044227;28;20059;-57
2023/06/15 06:46:56;;;;;;;73.03;10.43;;;21.80;58.10;;;;;;5051931;28;20063;-57
2023/06/15 06:49:21;;;;;;;55.08;9.30;;;21.80;58.20;;;;;;5060042;28;20107;-57
2023/06/15 06:51:47;;;;;;;55.38;9.80;;;21.80;58.20;;;;;;5044430;28;20030;-57
2023/06/15 06:54:12;;;;;;;53.65;9.63;;;21.90;58.30;;;;;;5040592;28;20021;-56
2023/06/15 06:56:38;;;;;;;62.78;10.40;;;21.90;58.30;;;;;;5036632;28;20053;-57
2023/06/15 06:59:04;;;;;;;44.45;8.85;;;21.90;58.30;;;;;;5051414;28;20030;-57
2023/06/15 07:01:29;;;;;;;69.88;10.88;;;21.90;58.50;;;;;;5039294;28;20081;-56
2023/06/15 07:03:55;;;;;;;59.63;10.80;;;21.90;58.60;;;;;;5026808;28;20034;-56
2023/06/15 07:06:20;;;;;;;45.05;9.55;;;21.90;58.70;;;;;;5055842;28;20140;-56
2023/06/15 07:08:47;;;;;;;48.80;9.30;;;21.90;58.70;;;;;;5063743;28;20021;-56
2023/06/15 07:11:13;;;;;;;70.53;11.60;;;21.90;58.70;;;;;;5034468;28;20025;-56
2023/06/15 07:13:40;;;;;;;59.13;10.27;;;21.90;59.00;;;;;;5047051;28;20083;-57
2023/06/15 07:16:06;;;;;;;65.40;11.38;;;21.90;59.10;;;;;;5051650;28;20044;-57
2023/06/15 07:18:31;;;;;;;54.33;10.35;;;21.90;59.30;;;;;;5044923;28;20476;-57
2023/06/15 07:20:57;;;;;;;65.18;11.38;;;21.90;59.10;;;;;;5063919;28;20111;-56
2023/06/15 07:23:23;;;;;;;79.45;12.75;;;21.90;59.00;;;;;;5065043;28;20051;-56
2023/06/15 07:25:49;;;;;;;86.72;12.10;;;21.90;59.40;;;;;;5035584;28;20369;-57
2023/06/15 07:28:15;;;;;;;86.30;12.63;;;22.00;59.40;;;;;;5028662;28;20092;-57
2023/06/15 07:30:41;;;;;;;100.13;14.15;;;22.00;59.40;;;;;;5059247;28;20029;-57
2023/06/15 07:33:06;;;;;;;94.18;13.52;;;22.00;59.50;;;;;;5062946;28;20029;-57
2023/06/15 07:35:32;;;;;;;107.82;15.65;;;22.00;59.50;;;;;;5042374;28;20049;-56
2023/06/15 07:37:57;;;;;;;135.15;17.90;;;22.00;59.40;;;;;;5045626;28;20037;-57
2023/06/15 07:40:23;;;;;;;87.97;15.00;;;22.00;59.60;;;;;;5043003;28;20041;-57
2023/06/15 07:42:49;;;;;;;93.35;12.82;;;22.00;59.40;;;;;;5044064;28;20370;-57
2023/06/15 07:45:14;;;;;;;85.45;12.10;;;22.00;59.10;;;;;;5029846;28;20056;-57
2023/06/15 07:47:41;;;;;;;70.43;12.07;;;22.00;59.10;;;;;;5033527;28;20068;-56
2023/06/15 07:50:07;;;;;;;60.08;11.18;;;22.00;59.10;;;;;;5022115;28;20108;-57
2023/06/15 07:52:33;;;;;;;69.22;11.95;;;22.00;59.10;;;;;;5015460;28;20033;-56
2023/06/15 07:54:58;;;;;;;59.20;11.45;;;22.10;59.20;;;;;;5042803;28;20022;-56
2023/06/15 07:57:25;;;;;;;59.67;10.52;;;22.10;59.30;;;;;;5042689;28;20112;-57
2023/06/15 07:59:51;;;;;;;58.47;10.45;;;22.10;59.20;;;;;;5041315;28;20041;-56
2023/06/15 08:02:16;;;;;;;49.22;10.23;;;22.10;59.20;;;;;;5044099;28;20033;-57
2023/06/15 08:04:42;;;;;;;49.75;9.88;;;22.10;59.20;;;;;;5036101;28;20092;-57
2023/06/15 08:07:07;;;;;;;51.63;10.35;;;22.10;59.20;;;;;;5043759;28;20037;-56
2023/06/15 08:09:33;;;;;;;40.60;8.40;;;22.10;59.40;;;;;;5040997;28;20027;-56
2023/06/15 08:11:59;;;;;;;48.75;10.70;;;22.10;59.30;;;;;;5046004;28;20034;-56
2023/06/15 08:14:25;;;;;;;68.68;10.27;;;22.10;59.50;;;;;;5046845;28;20049;-56
2023/06/15 08:16:51;;;;;;;60.75;9.85;;;22.10;59.50;;;;;;5035617;28;20052;-56
2023/06/15 08:19:16;;;;;;;56.08;9.30;;;22.10;59.60;;;;;;5048006;28;20056;-57
2023/06/15 08:21:42;;;;;;;47.22;8.10;;;22.20;59.70;;;;;;5043359;28;20037;-56
2023/06/15 08:24:07;;;;;;;44.67;7.88;;;22.10;59.60;;;;;;5043745;28;20049;-57
2023/06/15 08:26:33;;;;;;;61.08;9.48;;;22.20;59.90;;;;;;5040201;28;20457;-57
2023/06/15 08:28:58;;;;;;;41.08;9.02;;;22.20;60.20;;;;;;5045422;28;20030;-57
2023/06/15 08:31:24;;;;;;;55.40;8.30;;;22.20;60.40;;;;;;5035314;28;20088;-57
2023/06/15 08:33:49;;;;;;;55.58;10.25;;;22.20;60.00;;;;;;5035974;28;20103;-57
2023/06/15 08:36:15;;;;;;;61.88;8.95;;;22.20;60.30;;;;;;5032282;28;20038;-57
2023/06/15 08:38:41;;;;;;;53.13;8.77;;;22.20;60.20;;;;;;5044376;28;20029;-56
2023/06/15 08:41:07;;;;;;;73.25;11.68;;;22.20;60.00;;;;;;5043761;28;20126;-54
2023/06/15 08:43:32;;;;;;;70.47;10.70;;;22.20;60.40;;;;;;5043070;28;20112;-54
2023/06/15 08:45:58;;;;;;;69.90;11.25;;;22.20;60.80;;;;;;5045950;28;20045;-54
2023/06/15 08:48:24;;;;;;;59.22;10.15;;;22.20;60.80;;;;;;5044394;28;20064;-54
2023/06/15 08:50:49;;;;;;;77.10;11.23;;;22.20;60.90;;;;;;5024506;28;20054;-54
2023/06/15 08:53:15;;;;;;;69.28;9.80;;;22.20;61.30;;;;;;5013285;28;20021;-54
2023/06/15 08:55:41;;;;;;;58.42;10.18;;;22.20;61.70;;;;;;5047019;28;20048;-54
2023/06/15 08:58:07;;;;;;;48.63;8.55;;;22.30;61.00;;;;;;5046355;28;20022;-54
2023/06/15 09:00:32;;;;;;;80.38;10.02;;;22.30;60.90;;;;;;5046575;28;20033;-54
2023/06/15 09:03:00;;;;;;;84.68;11.40;;;22.30;60.90;;;;;;5046124;28;20149;-54
2023/06/15 09:05:26;;;;;;;101.95;15.32;;;22.30;61.50;;;;;;5046044;28;20041;-54
2023/06/15 09:07:52;;;;;;;51.65;8.93;;;22.30;61.80;;;;;;5045811;28;20521;-53
2023/06/15 09:10:21;;;;;;;84.97;10.90;;;22.30;61.10;;;;;;5047449;28;20061;-54
2023/06/15 09:12:48;;;;;;;81.60;11.20;;;22.30;61.00;;;;;;5045899;28;20310;-54
2023/06/15 09:15:32;;;;;;;58.08;10.80;;;22.30;61.20;;;;;;5041313;28;20053;-54
2023/06/15 09:17:59;;;;;;;45.85;8.60;;;22.40;60.90;;;;;;5039876;28;20374;-54
2023/06/15 09:20:26;;;;;;;71.93;10.88;;;22.40;61.00;;;;;;5045185;28;20462;-54
2023/06/15 09:22:52;;;;;;;48.17;9.13;;;22.40;61.40;;;;;;5044435;28;20022;-54
2023/06/15 09:25:19;;;;;;;49.78;9.63;;;22.40;61.30;;;;;;5045453;28;20029;-54
2023/06/15 09:28:00;;;;;;;47.65;9.85;;;22.40;61.40;;;;;;5047064;28;20093;-53
2023/06/15 09:30:33;;;;;;;64.80;10.65;;;22.40;61.40;;;;;;5045727;28;20092;-54
2023/06/15 09:33:18;;;;;;;51.83;9.75;;;22.40;61.90;;;;;;5046204;28;20013;-54
2023/06/15 09:36:03;;;;;;;68.93;10.40;;;22.50;61.20;;;;;;5046542;28;20029;-54
2023/06/15 09:38:31;;;;;;;71.55;9.30;;;22.50;61.10;;;;;;5045005;28;20124;-54
2023/06/15 09:40:56;;;;;;;123.45;16.17;;;22.50;61.50;;;;;;5044888;28;20033;-54
2023/06/15 09:43:22;;;;;;;68.93;13.10;;;22.50;61.40;;;;;;5044887;28;20043;-53
2023/06/15 09:45:51;;;;;;;69.95;11.10;;;22.60;61.30;;;;;;5045494;28;20045;-54
2023/06/15 09:48:17;;;;;;;77.80;10.98;;;22.60;61.00;;;;;;5045836;28;20064;-54
2023/06/15 09:50:42;;;;;;;58.88;10.27;;;22.60;60.70;;;;;;5045247;28;20018;-54
2023/06/15 09:53:10;;;;;;;70.97;10.95;;;22.70;60.60;;;;;;5028280;28;20026;-54
2023/06/15 09:55:37;;;;;;;56.20;9.48;;;22.60;60.40;;;;;;5028468;28;20041;-54
2023/06/15 09:58:03;;;;;;;23.55;6.15;;;22.70;60.20;;;;;;5028600;28;20048;-55
2023/06/15 10:00:28;;;;;;;149.35;18.83;;;22.70;59.20;;;;;;5045381;28;20466;-54
2023/06/15 10:02:54;;;;;;;76.63;11.73;;;22.80;59.10;;;;;;5028966;28;20044;-54
2023/06/15 10:05:19;;;;;;;58.90;9.02;;;22.80;59.20;;;;;;5028553;28;20175;-54
2023/06/15 10:07:46;;;;;;;46.38;8.65;;;22.80;59.00;;;;;;5044005;28;20029;-54
2023/06/15 10:10:12;;;;;;;45.58;8.30;;;22.80;58.60;;;;;;5044598;28;20037;-54
2023/06/15 10:12:40;;;;;;;44.50;8.05;;;22.90;58.50;;;;;;5044954;28;20029;-54
2023/06/15 10:15:11;;;;;;;55.35;9.38;;;23.00;58.30;;;;;;5042805;28;20033;-54
2023/06/15 10:17:40;;;;;;;48.97;8.05;;;23.00;58.30;;;;;;5042843;28;20075;-54
2023/06/15 10:20:19;;;;;;;45.92;7.50;;;23.00;58.10;;;;;;5023163;28;20022;-54
2023/06/15 10:23:07;;;;;;;52.38;8.40;;;23.00;57.70;;;;;;5024793;28;20037;-54
2023/06/15 10:25:33;;;;;;;46.00;7.85;;;23.10;57.60;;;;;;5025503;28;20100;-54
2023/06/15 10:27:59;;;;;;;43.53;7.30;;;23.10;57.60;;;;;;5024990;28;20030;-54
2023/06/15 10:30:27;;;;;;;50.47;8.15;;;23.20;57.40;;;;;;5026391;28;20033;-54
2023/06/15 10:32:56;;;;;;;43.13;7.63;;;23.20;57.30;;;;;;5044333;28;20120;-54
2023/06/15 10:35:38;;;;;;;25.92;7.18;;;23.30;57.20;;;;;;5026505;28;20042;-55
2023/06/15 10:38:17;;;;;;;34.53;6.65;;;23.30;56.90;;;;;;5042935;28;20036;-54
2023/06/15 10:40:48;;;;;;;51.88;8.60;;;23.40;56.70;;;;;;5044659;28;20044;-54
2023/06/15 10:43:20;;;;;;;42.15;8.57;;;23.40;56.60;;;;;;5045905;28;20025;-54
2023/06/15 10:45:46;;;;;;;65.47;9.45;;;23.50;56.60;;;;;;5044744;28;20094;-54
2023/06/15 10:48:33;;;;;;;48.75;8.25;;;23.50;56.50;;;;;;5044022;28;20030;-54
2023/06/15 10:51:06;;;;;;;53.63;10.27;;;23.60;56.10;;;;;;5044950;28;20065;-54
2023/06/15 10:53:36;;;;;;;55.70;9.93;;;23.70;56.10;;;;;;5045046;28;20151;-54
2023/06/15 10:56:01;;;;;;;46.42;8.02;;;23.80;55.90;;;;;;5041645;28;20370;-52
2023/06/15 10:58:28;;;;;;;57.20;8.65;;;23.90;55.60;;;;;;5019685;28;20025;-54
2023/06/15 11:01:11;;;;;;;64.03;10.10;;;23.90;55.50;;;;;;5044454;28;20057;-54
2023/06/15 11:03:39;;;;;;;58.47;8.55;;;24.10;55.30;;;;;;5044456;28;20033;-54
2023/06/15 11:06:07;;;;;;;50.55;8.82;;;24.20;55.00;;;;;;5046132;28;20041;-53
2023/06/15 11:08:52;;;;;;;38.35;7.07;;;24.20;54.80;;;;;;5025807;28;20068;-54
2023/06/15 11:11:30;;;;;;;45.87;7.37;;;24.30;54.50;;;;;;5049300;28;20060;-54
2023/06/15 11:13:57;;;;;;;46.78;7.82;;;24.40;54.10;;;;;;5015878;28;20312;-54
2023/06/15 11:16:29;;;;;;;55.78;8.95;;;24.40;53.90;;;;;;5048292;28;20112;-54
2023/06/15 11:19:19;;;;;;;50.00;7.82;;;24.50;53.90;;;;;;5041697;28;20041;-54
2023/06/15 11:22:01;;;;;;;44.60;7.13;;;24.50;53.60;;;;;;5041686;28;20056;-54
2023/06/15 11:24:33;;;;;;;35.38;7.32;;;24.60;53.30;;;;;;5042866;28;20035;-54
2023/06/15 11:27:02;;;;;;;39.15;7.20;;;24.70;53.40;;;;;;5044988;28;20037;-54
2023/06/15 11:29:27;;;;;;;49.50;8.02;;;24.80;53.30;;;;;;5044725;28;20025;-54
2023/06/15 11:31:53;;;;;;;25.95;6.72;;;24.80;53.20;;;;;;5038692;28;20110;-54
2023/06/15 11:34:19;;;;;;;34.92;6.85;;;24.90;53.10;;;;;;5041739;28;20037;-54
2023/06/15 11:36:45;;;;;;;42.72;7.03;;;25.00;53.00;;;;;;5049516;28;20036;-54
2023/06/15 11:39:21;;;;;;;35.00;6.82;;;25.10;52.90;;;;;;5042939;28;20370;-54
2023/06/15 11:41:48;;;;;;;45.45;7.43;;;25.20;52.70;;;;;;5042799;28;20039;-54
2023/06/15 11:44:13;;;;;;;28.35;7.05;;;25.30;52.70;;;;;;5025768;28;20037;-53
2023/06/15 11:46:40;;;;;;;33.35;6.57;;;25.30;52.40;;;;;;5042980;28;20045;-54
2023/06/15 11:49:07;;;;;;;20.60;6.15;;;25.40;52.60;;;;;;5041900;28;20036;-54
2023/06/15 11:51:33;;;;;;;18.50;5.75;;;25.40;52.50;;;;;;5043300;28;20021;-55
2023/06/15 11:53:59;;;;;;;20.42;5.30;;;25.50;52.50;;;;;;5042196;28;20025;-54
2023/06/15 11:56:25;;;;;;;16.10;5.05;;;25.50;52.20;;;;;;5042340;28;20043;-54
2023/06/15 11:58:51;;;;;;;26.02;6.25;;;25.60;51.90;;;;;;5043223;28;20025;-54
2023/06/15 12:01:16;;;;;;;21.08;5.10;;;25.60;52.40;;;;;;5042470;28;20040;-54
2023/06/15 12:03:47;;;;;;;19.00;5.00;;;25.70;51.70;;;;;;5042971;28;20021;-54
2023/06/15 12:06:15;;;;;;;19.65;5.40;;;25.80;51.40;;;;;;5042088;28;20125;-54
2023/06/15 12:08:41;;;;;;;26.35;5.50;;;25.90;51.60;;;;;;5041883;28;20072;-54
2023/06/15 12:11:07;;;;;;;22.67;5.15;;;26.00;51.30;;;;;;5047162;28;20025;-54
2023/06/15 12:13:36;;;;;;;27.33;5.85;;;26.00;51.10;;;;;;5056567;28;20021;-54
2023/06/15 12:16:02;;;;;;;27.13;5.80;;;26.10;51.60;;;;;;5026997;28;20104;-53
2023/06/15 12:18:27;;;;;;;22.17;5.28;;;26.20;51.60;;;;;;5042536;28;20041;-54
2023/06/15 12:20:53;;;;;;;30.00;5.75;;;26.20;51.60;;;;;;5043823;28;20043;-54
2023/06/15 12:23:31;;;;;;;32.63;5.90;;;26.30;51.30;;;;;;5042739;28;20072;-54
2023/06/15 12:25:57;;;;;;;32.38;6.38;;;26.40;51.30;;;;;;5042542;28;20032;-54
2023/06/15 12:28:24;;;;;;;41.92;6.97;;;26.50;50.80;;;;;;5041929;28;20061;-54
2023/06/15 12:30:50;;;;;;;32.17;6.78;;;26.60;50.50;;;;;;5042361;28;20442;-54
2023/06/15 12:33:29;;;;;;;33.38;5.85;;;26.70;50.70;;;;;;5042462;28;20097;-54
2023/06/15 12:35:55;;;;;;;28.88;6.28;;;26.80;50.30;;;;;;5042569;28;20021;-54